Terminal Aerodrome Forecast
Issued by NWS North Platte, NE

Home | Current Version | Previous Version | Text Only | Print | Product List | Glossary On
Versions: 1 2 3 4 5 6 7 8 9 10 11 12 13
600
FTUS43 KLBF 252320
TAFVTN
TAF
KVTN 252320Z 2600/2624 31013G19KT P6SM SKC
     FM260100 31010KT P6SM SKC
     FM260400 29005KT P6SM SKC
     FM261700 30012KT P6SM SKC=

USA.gov is the U.S. government's official web portal to all federal, state and local government web resources and services.